Stewartby, United Kingdom
Current Conditions -  °F | °C
As of 5:50 PM on Friday 24 Oct 2014 (Local Time) from EGTC Reporting Station
Scattered Clouds Scattered Clouds  
Wind Chill: 59°   Ceiling: Unl
Heat Index: 59°   Visibility: 6mi
Dew Point: 59°   Wind: 12mph
Humidity: 100%   Direction: 200°SSW
Pressure: 29.85"   Gusts: NA
Location:  52.07°N, 0.51°W
Report Text: EGTC 241650Z 20010KT 9999 SCT022 15/15 Q1011
Loading
Personal Weather Stations






























Interactive Weather Map
Tropical Storm Tracking
New forecast layout! Learn more

10-Day Weather Forecast

Advertisements
Track Severe Weather on mobile